createdAt,value
2018-12-17T00:01:11.742Z,74.64
2018-12-17T00:03:40.308Z,73.60
2018-12-17T00:06:09.039Z,73.54
2018-12-17T00:08:37.754Z,73.91
2018-12-17T00:11:06.597Z,74.37
2018-12-17T00:13:35.143Z,74.03
2018-12-17T00:16:03.831Z,73.51
2018-12-17T00:18:32.449Z,74.15
2018-12-17T00:21:01.129Z,73.68
2018-12-17T00:23:29.712Z,74.04
2018-12-17T00:25:58.436Z,73.99
2018-12-17T00:28:27.164Z,73.78
2018-12-17T00:30:55.729Z,73.90
2018-12-17T00:33:24.378Z,73.94
2018-12-17T00:35:52.968Z,73.83
2018-12-17T00:38:21.571Z,74.14
2018-12-17T00:40:50.236Z,74.47
2018-12-17T00:43:18.807Z,74.12
2018-12-17T00:45:47.389Z,73.97
2018-12-17T00:48:15.978Z,74.66
2018-12-17T00:50:44.541Z,74.68
2018-12-17T00:53:13.144Z,74.56
2018-12-17T00:55:41.748Z,74.41
2018-12-17T01:00:45.153Z,74.75
2018-12-17T01:04:42.866Z,75.28
2018-12-17T01:07:11.458Z,74.24
2018-12-17T01:09:40.326Z,74.42
2018-12-17T01:12:08.977Z,74.69
2018-12-17T01:14:38.075Z,74.48
2018-12-17T01:17:06.667Z,73.80
2018-12-17T01:19:35.311Z,74.51
2018-12-17T01:25:03.093Z,74.35
2018-12-17T01:27:32.325Z,74.41
2018-12-17T01:30:00.898Z,74.63
2018-12-17T01:32:29.451Z,74.62
2018-12-17T01:34:58.606Z,74.75
2018-12-17T01:37:27.250Z,74.30
2018-12-17T01:39:55.885Z,74.00
2018-12-17T01:42:24.490Z,73.37
2018-12-17T01:44:53.090Z,74.41
2018-12-17T01:47:21.688Z,73.48
2018-12-17T01:49:50.254Z,73.67
2018-12-17T01:52:18.916Z,74.48
2018-12-17T01:54:47.555Z,74.18
2018-12-17T01:57:16.099Z,74.11
2018-12-17T01:59:44.690Z,73.65
2018-12-17T02:02:13.274Z,73.14
2018-12-17T02:04:42.422Z,73.26
2018-12-17T02:07:11.483Z,73.31
2018-12-17T02:09:40.075Z,73.38
2018-12-17T02:12:08.720Z,73.79
2018-12-17T02:14:37.302Z,73.30
2018-12-17T02:17:05.938Z,73.33
2018-12-17T02:19:34.482Z,74.13
2018-12-17T02:22:03.093Z,73.33
2018-12-17T02:24:31.664Z,73.53
2018-12-17T02:27:00.248Z,73.50
2018-12-17T02:29:28.845Z,74.05
2018-12-17T02:31:57.522Z,73.63
2018-12-17T02:34:26.087Z,73.27
2018-12-17T02:36:54.672Z,73.55
2018-12-17T02:39:23.239Z,72.92
2018-12-17T02:41:51.893Z,73.41
2018-12-17T02:44:20.704Z,74.18
2018-12-17T02:46:49.287Z,73.33
2018-12-17T02:49:18.131Z,73.84
2018-12-17T02:51:46.723Z,73.32
2018-12-17T02:54:15.312Z,74.20
2018-12-17T02:56:43.878Z,73.25
2018-12-17T02:59:12.455Z,73.95
2018-12-17T03:01:41.056Z,73.95
2018-12-17T03:05:12.748Z,73.69
2018-12-17T03:07:41.286Z,73.71
2018-12-17T03:10:10.350Z,73.68
2018-12-17T03:12:38.911Z,73.59
2018-12-17T03:15:08.067Z,74.35
2018-12-17T03:17:36.697Z,74.26
2018-12-17T03:20:05.755Z,73.64
2018-12-17T03:22:34.423Z,73.72
2018-12-17T03:25:03.092Z,73.78
2018-12-17T03:27:31.768Z,73.32
2018-12-17T03:30:00.375Z,74.11
2018-12-17T03:32:28.994Z,74.31
2018-12-17T03:34:57.600Z,74.62
2018-12-17T03:37:26.133Z,73.62
2018-12-17T03:39:54.718Z,74.53
2018-12-17T03:42:23.274Z,73.60
2018-12-17T03:44:51.876Z,73.58
2018-12-17T03:47:20.512Z,73.05
2018-12-17T03:49:49.055Z,72.93
2018-12-17T03:52:17.687Z,73.39
2018-12-17T03:54:46.845Z,72.61
2018-12-17T03:57:15.444Z,73.45
2018-12-17T03:59:44.077Z,73.85
2018-12-17T04:02:12.684Z,74.14
2018-12-17T04:04:41.391Z,74.04
2018-12-17T04:07:09.915Z,73.91
2018-12-17T04:09:38.491Z,73.43
2018-12-17T04:12:07.049Z,74.10
2018-12-17T04:14:35.645Z,73.31
2018-12-17T04:17:04.290Z,72.65
2018-12-17T04:19:32.889Z,73.30
2018-12-17T04:22:01.513Z,73.35
2018-12-17T04:24:30.168Z,73.46
2018-12-17T04:26:58.760Z,74.03
2018-12-17T04:29:27.379Z,73.64
2018-12-17T04:31:55.950Z,74.31
2018-12-17T04:34:24.525Z,73.92
2018-12-17T04:36:53.094Z,74.69
2018-12-17T04:39:21.710Z,74.20
2018-12-17T04:41:50.419Z,74.46
2018-12-17T04:44:19.649Z,74.76
2018-12-17T04:46:48.222Z,73.33
2018-12-17T04:49:16.816Z,74.62
2018-12-17T04:51:45.437Z,74.20
2018-12-17T04:54:14.032Z,74.25
2018-12-17T04:56:42.582Z,75.01
2018-12-17T04:59:14.671Z,73.96
2018-12-17T05:01:41.869Z,74.53
2018-12-17T05:04:11.415Z,74.36
2018-12-17T05:06:39.996Z,74.72
2018-12-17T05:09:09.146Z,74.57
2018-12-17T05:11:37.770Z,75.48
2018-12-17T05:14:06.417Z,74.90
2018-12-17T05:16:35.097Z,74.67
2018-12-17T05:19:03.719Z,74.78
2018-12-17T05:21:32.319Z,74.79
2018-12-17T05:24:00.874Z,75.35
2018-12-17T05:26:29.446Z,74.33
2018-12-17T05:28:58.050Z,74.51
2018-12-17T05:31:26.618Z,74.56
2018-12-17T05:33:55.230Z,74.57
2018-12-17T05:36:23.804Z,74.27
2018-12-17T05:38:52.363Z,74.45
2018-12-17T05:41:20.918Z,74.62
2018-12-17T05:43:49.536Z,75.01
2018-12-17T05:46:18.136Z,74.86
2018-12-17T05:48:46.739Z,74.16
2018-12-17T05:51:15.339Z,74.55
2018-12-17T05:53:44.116Z,74.72
2018-12-17T05:56:12.699Z,74.72
2018-12-17T05:58:41.297Z,74.76
2018-12-17T06:01:09.912Z,74.45
2018-12-17T06:03:38.521Z,75.03
2018-12-17T06:06:07.146Z,75.12
2018-12-17T06:08:36.818Z,74.72
2018-12-17T06:11:05.425Z,74.91
2018-12-17T06:13:34.053Z,74.88
2018-12-17T06:16:02.659Z,73.84
2018-12-17T06:18:31.242Z,74.22
2018-12-17T06:20:59.950Z,73.34
2018-12-17T06:23:28.491Z,73.54
2018-12-17T06:25:57.149Z,73.13
2018-12-17T06:28:25.780Z,72.82
2018-12-17T06:30:54.436Z,73.04
2018-12-17T06:33:24.536Z,72.67
2018-12-17T06:35:53.307Z,72.49
2018-12-17T06:38:21.867Z,72.19
2018-12-17T06:40:50.573Z,72.67
2018-12-17T06:43:19.190Z,72.10
2018-12-17T06:45:47.794Z,72.39
2018-12-17T06:48:17.293Z,72.45
2018-12-17T06:50:46.233Z,72.17
2018-12-17T06:53:15.552Z,72.75
2018-12-17T06:55:44.277Z,71.86
2018-12-17T06:58:13.345Z,71.70
2018-12-17T07:00:42.104Z,71.25
2018-12-17T07:03:10.708Z,71.53
2018-12-17T07:05:39.352Z,71.73
2018-12-17T07:08:07.958Z,72.05
2018-12-17T07:10:36.561Z,71.46
2018-12-17T07:13:05.156Z,72.00
2018-12-17T07:15:34.017Z,72.60
2018-12-17T07:18:02.604Z,71.97
2018-12-17T07:20:31.151Z,72.08
2018-12-17T07:22:59.748Z,71.46
2018-12-17T07:25:28.368Z,71.56
2018-12-17T07:27:57.028Z,71.78
2018-12-17T07:30:31.927Z,72.30
2018-12-17T07:33:00.515Z,70.83
2018-12-17T07:35:29.163Z,71.18
2018-12-17T07:37:57.709Z,70.97
2018-12-17T07:40:26.465Z,70.67
2018-12-17T07:42:55.149Z,71.03
2018-12-17T07:45:24.087Z,71.07
2018-12-17T07:47:52.696Z,71.75
2018-12-17T07:50:21.354Z,70.26
2018-12-17T07:52:49.929Z,69.87
2018-12-17T07:55:18.549Z,69.59
2018-12-17T07:57:47.163Z,69.94
2018-12-17T08:00:15.872Z,70.45
2018-12-17T08:02:44.461Z,69.48
2018-12-17T08:05:13.107Z,68.78
2018-12-17T08:07:41.759Z,67.60
2018-12-17T08:10:10.351Z,68.10
2018-12-17T08:12:38.994Z,67.01
2018-12-17T08:15:07.839Z,66.33
2018-12-17T08:17:36.517Z,66.73
2018-12-17T08:20:05.650Z,66.60
2018-12-17T08:22:34.624Z,66.46
2018-12-17T08:25:03.307Z,66.02
2018-12-17T08:27:31.922Z,65.24
2018-12-17T08:30:03.937Z,65.04
2018-12-17T08:32:31.087Z,65.46
2018-12-17T08:34:59.942Z,64.68
2018-12-17T08:37:28.572Z,64.85
2018-12-17T08:39:57.237Z,64.47
2018-12-17T08:42:25.899Z,64.01
2018-12-17T08:44:54.588Z,63.01
2018-12-17T08:47:23.234Z,62.77
2018-12-17T08:49:51.867Z,63.06
2018-12-17T08:52:20.530Z,62.17
2018-12-17T08:54:49.834Z,63.07
2018-12-17T08:57:18.507Z,61.72
2018-12-17T08:59:47.161Z,62.63
2018-12-17T09:02:15.814Z,62.26
2018-12-17T09:04:44.433Z,62.02
2018-12-17T09:07:13.084Z,61.60
2018-12-17T09:09:41.721Z,61.41
2018-12-17T09:12:10.656Z,60.59
2018-12-17T09:14:39.342Z,60.13
2018-12-17T09:17:07.994Z,60.21
2018-12-17T09:19:36.638Z,60.42
2018-12-17T09:22:05.327Z,62.39
2018-12-17T09:24:34.054Z,60.83
2018-12-17T09:27:02.678Z,61.68
2018-12-17T09:29:31.362Z,60.84
2018-12-17T09:32:00.018Z,60.91
2018-12-17T09:34:28.659Z,62.08
2018-12-17T09:36:57.281Z,62.37
2018-12-17T09:39:25.867Z,63.11
2018-12-17T09:41:54.450Z,61.27
2018-12-17T09:44:23.023Z,62.87
2018-12-17T09:46:51.706Z,61.26
2018-12-17T09:49:20.587Z,61.89
2018-12-17T09:51:49.215Z,61.65
2018-12-17T09:54:17.907Z,61.98
2018-12-17T09:56:46.534Z,61.53
2018-12-17T09:59:15.163Z,62.19
2018-12-17T10:01:43.801Z,62.62
2018-12-17T10:04:12.404Z,62.79
2018-12-17T10:06:41.002Z,61.60
2018-12-17T10:09:09.681Z,60.69
2018-12-17T10:11:38.309Z,62.11
2018-12-17T10:14:07.005Z,61.87
2018-12-17T10:16:35.620Z,61.21
2018-12-17T10:19:04.238Z,61.28
2018-12-17T10:21:32.854Z,62.37
2018-12-17T10:24:01.526Z,61.25
2018-12-17T10:26:30.291Z,60.59
2018-12-17T10:28:58.931Z,61.64
2018-12-17T10:31:27.589Z,61.03
2018-12-17T10:33:56.227Z,61.52
2018-12-17T10:36:24.887Z,60.99
2018-12-17T10:38:53.510Z,60.64
2018-12-17T10:41:22.158Z,61.65
2018-12-17T10:43:50.839Z,61.75
2018-12-17T10:46:19.461Z,61.06
2018-12-17T10:48:48.100Z,60.95
2018-12-17T10:51:16.811Z,60.15
2018-12-17T10:53:45.496Z,61.23
2018-12-17T10:56:14.183Z,60.13
2018-12-17T10:58:42.797Z,58.99
2018-12-17T11:01:16.644Z,60.22
2018-12-17T11:03:49.353Z,59.21
2018-12-17T11:06:21.966Z,59.97
2018-12-17T11:08:51.141Z,58.91
2018-12-17T11:11:19.702Z,59.17
2018-12-17T11:13:48.304Z,59.36
2018-12-17T11:16:16.960Z,59.02
2018-12-17T11:18:45.640Z,58.30
2018-12-17T11:21:14.308Z,59.36
2018-12-17T11:23:43.533Z,60.28
2018-12-17T11:26:12.396Z,59.37
2018-12-17T11:28:41.232Z,60.78
2018-12-17T11:31:09.837Z,61.48
2018-12-17T11:33:38.451Z,60.13
2018-12-17T11:36:07.072Z,60.46
2018-12-17T11:38:35.668Z,60.53
2018-12-17T11:41:04.327Z,60.07
2018-12-17T11:43:32.985Z,61.12
2018-12-17T11:46:03.667Z,60.31
2018-12-17T11:48:32.531Z,60.04
2018-12-17T11:51:01.830Z,60.76
2018-12-17T11:53:30.775Z,60.64
2018-12-17T11:55:59.367Z,61.08
2018-12-17T11:58:28.090Z,61.88
2018-12-17T12:01:01.448Z,60.92
2018-12-17T12:03:31.045Z,59.38
2018-12-17T12:05:59.755Z,60.33
2018-12-17T12:08:28.380Z,60.27
2018-12-17T12:10:57.081Z,60.32
2018-12-17T12:13:25.917Z,59.61
2018-12-17T12:15:54.562Z,60.10
2018-12-17T12:18:23.221Z,59.73
2018-12-17T12:20:51.946Z,59.94
2018-12-17T12:23:20.590Z,60.80
2018-12-17T12:25:49.223Z,61.40
2018-12-17T12:28:19.514Z,61.26
2018-12-17T12:30:48.853Z,61.79
2018-12-17T12:33:17.680Z,62.11
2018-12-17T12:35:46.825Z,61.41
2018-12-17T12:38:15.638Z,62.00
2018-12-17T12:40:44.825Z,62.13
2018-12-17T12:43:13.863Z,62.38
2018-12-17T12:45:42.525Z,61.86
2018-12-17T12:48:11.129Z,62.98
2018-12-17T12:50:39.785Z,62.65
2018-12-17T12:53:08.456Z,62.69
2018-12-17T12:55:37.638Z,61.47
2018-12-17T12:58:06.971Z,60.76
2018-12-17T13:00:35.819Z,62.02
2018-12-17T13:03:04.913Z,62.93
2018-12-17T13:05:34.475Z,61.73
2018-12-17T13:08:03.163Z,61.27
2018-12-17T13:10:32.114Z,61.90
2018-12-17T13:13:01.604Z,62.22
2018-12-17T13:15:30.829Z,62.91
2018-12-17T13:17:59.414Z,61.86
2018-12-17T13:20:28.065Z,62.42
2018-12-17T13:22:56.681Z,62.95
2018-12-17T13:25:38.435Z,61.99
2018-12-17T13:28:07.087Z,63.58
2018-12-17T13:30:35.785Z,63.75
2018-12-17T13:33:04.555Z,61.91
2018-12-17T13:35:33.200Z,62.03
2018-12-17T13:38:02.125Z,62.02
2018-12-17T13:40:30.765Z,62.74
2018-12-17T13:42:59.477Z,63.41
2018-12-17T13:45:28.084Z,63.29
2018-12-17T13:47:56.823Z,62.39
2018-12-17T13:50:30.805Z,62.99
2018-12-17T13:53:04.576Z,62.20
2018-12-17T13:55:33.286Z,63.42
2018-12-17T13:58:02.032Z,62.68
2018-12-17T14:00:30.751Z,62.69
2018-12-17T14:02:59.373Z,62.91
2018-12-17T14:05:28.583Z,63.45
2018-12-17T14:07:57.203Z,62.80
2018-12-17T14:10:30.814Z,63.33
2018-12-17T14:12:59.888Z,63.21
2018-12-17T14:15:32.627Z,62.98
2018-12-17T14:18:03.281Z,63.95
2018-12-17T14:20:38.218Z,63.34
2018-12-17T14:23:06.881Z,63.59
2018-12-17T14:25:35.623Z,64.87
2018-12-17T14:28:04.218Z,63.95
2018-12-17T14:30:32.784Z,65.18
2018-12-17T14:33:07.869Z,64.91
2018-12-17T14:35:42.780Z,64.42
2018-12-17T14:38:12.661Z,65.12
2018-12-17T14:40:42.632Z,64.96
2018-12-17T14:43:13.244Z,64.90
2018-12-17T14:45:46.484Z,65.16
2018-12-17T14:48:15.928Z,65.75
2018-12-17T14:50:45.937Z,65.78
2018-12-17T14:53:15.464Z,65.73
2018-12-17T14:55:45.260Z,66.56
2018-12-17T14:58:14.152Z,65.83
2018-12-17T15:00:44.163Z,65.69
2018-12-17T15:03:12.783Z,66.07
2018-12-17T15:05:41.508Z,66.24
2018-12-17T15:08:10.231Z,65.64
2018-12-17T15:10:38.846Z,66.29
2018-12-17T15:13:07.545Z,65.47
2018-12-17T15:15:36.307Z,66.62
2018-12-17T15:18:04.935Z,66.09
2018-12-17T15:20:33.618Z,67.03
2018-12-17T15:23:03.517Z,67.36
2018-12-17T15:25:32.197Z,67.23
2018-12-17T15:28:01.002Z,67.52
2018-12-17T15:30:29.782Z,67.86
2018-12-17T15:32:58.448Z,67.62
2018-12-17T15:35:27.054Z,67.78
2018-12-17T15:37:55.700Z,68.23
2018-12-17T15:40:24.335Z,67.97
2018-12-17T15:42:52.949Z,68.22
2018-12-17T15:45:21.698Z,68.95
2018-12-17T15:47:50.402Z,68.19
2018-12-17T15:50:19.177Z,68.82
2018-12-17T15:52:47.841Z,68.78
2018-12-17T15:55:16.585Z,68.36
2018-12-17T15:57:46.669Z,67.83
2018-12-17T16:00:15.369Z,67.82
2018-12-17T16:02:43.979Z,68.23
2018-12-17T16:05:12.687Z,67.71
2018-12-17T16:07:41.344Z,67.11
2018-12-17T16:10:10.112Z,66.63
2018-12-17T16:12:38.721Z,65.60
2018-12-17T16:15:07.625Z,66.16
2018-12-17T16:17:36.296Z,67.55
2018-12-17T16:20:05.069Z,67.11
2018-12-17T16:22:33.704Z,67.67
2018-12-17T16:25:02.291Z,67.50
2018-12-17T16:27:30.913Z,68.06
2018-12-17T16:29:59.754Z,67.70
2018-12-17T16:32:28.384Z,68.13
2018-12-17T16:34:57.015Z,68.59
2018-12-17T16:37:25.846Z,69.24
2018-12-17T16:39:54.471Z,69.81
2018-12-17T16:42:23.127Z,70.28
2018-12-17T16:44:51.794Z,70.48
2018-12-17T16:47:20.436Z,71.19
2018-12-17T16:49:49.085Z,70.98
2018-12-17T16:52:17.802Z,71.55
2018-12-17T16:54:46.414Z,72.57
2018-12-17T16:57:15.076Z,73.04
2018-12-17T16:59:43.657Z,73.42
2018-12-17T17:02:12.430Z,73.56
2018-12-17T17:04:41.595Z,73.96
2018-12-17T17:07:10.352Z,72.93
2018-12-17T17:09:39.011Z,73.77
2018-12-17T17:12:07.743Z,73.68
2018-12-17T17:14:36.341Z,73.62
2018-12-17T17:17:19.354Z,73.95
2018-12-17T17:19:51.011Z,73.87
2018-12-17T17:22:18.719Z,72.78
2018-12-17T17:24:47.409Z,73.29
2018-12-17T17:27:15.951Z,73.59
2018-12-17T17:29:44.626Z,72.77
2018-12-17T17:32:13.272Z,72.50
2018-12-17T17:34:42.156Z,71.91
2018-12-17T17:37:10.789Z,72.44
2018-12-17T17:39:39.476Z,71.90
2018-12-17T17:42:08.094Z,72.62
2018-12-17T17:44:36.731Z,72.74
2018-12-17T17:47:05.997Z,72.52
2018-12-17T17:49:34.635Z,72.83
2018-12-17T17:52:03.342Z,72.55
2018-12-17T17:54:32.025Z,72.58
2018-12-17T17:57:00.657Z,72.00
2018-12-17T17:59:29.349Z,71.05
2018-12-17T18:01:57.960Z,70.33
2018-12-17T18:04:26.626Z,70.94
2018-12-17T18:06:55.216Z,70.40
2018-12-17T18:09:23.912Z,70.77
2018-12-17T18:11:53.132Z,70.03
2018-12-17T18:14:22.728Z,70.59
2018-12-17T18:16:51.403Z,70.77
2018-12-17T18:19:20.211Z,71.29
2018-12-17T18:21:48.807Z,71.39
2018-12-17T18:24:17.757Z,70.90
2018-12-17T18:26:46.338Z,70.69
2018-12-17T18:29:14.986Z,70.69
2018-12-17T18:31:43.721Z,70.45
2018-12-17T18:34:12.317Z,70.56
2018-12-17T18:36:40.997Z,70.30
2018-12-17T18:39:09.823Z,70.57
2018-12-17T18:41:38.550Z,70.42
2018-12-17T18:44:07.348Z,70.84
2018-12-17T18:46:36.028Z,70.49
2018-12-17T18:49:05.128Z,71.06
2018-12-17T18:51:33.705Z,71.29
2018-12-17T18:54:02.305Z,71.42
2018-12-17T18:56:31.273Z,71.69
2018-12-17T18:58:59.880Z,71.79
2018-12-17T19:01:29.433Z,71.96
2018-12-17T19:03:58.079Z,72.10
2018-12-17T19:06:26.772Z,72.25
2018-12-17T19:08:55.459Z,72.85
2018-12-17T19:11:25.749Z,72.76
2018-12-17T19:13:54.419Z,73.18
2018-12-17T19:16:23.115Z,72.71
2018-12-17T19:18:51.962Z,72.87
2018-12-17T19:21:20.806Z,73.45
2018-12-17T19:23:49.808Z,74.12
2018-12-17T19:26:18.399Z,74.17
2018-12-17T19:28:47.071Z,73.95
2018-12-17T19:31:18.378Z,73.84
2018-12-17T19:34:20.880Z,74.08
2018-12-17T19:36:49.940Z,74.28
2018-12-17T19:39:18.743Z,74.58
2018-12-17T19:41:47.654Z,74.27
2018-12-17T19:44:16.288Z,73.82
2018-12-17T19:46:44.907Z,74.45
2018-12-17T19:49:16.070Z,74.50
2018-12-17T19:51:44.737Z,74.57
2018-12-17T19:54:13.416Z,75.08
2018-12-17T19:56:42.041Z,75.68
2018-12-17T19:59:11.646Z,76.15
2018-12-17T20:01:40.363Z,76.16
2018-12-17T20:04:09.054Z,76.00
2018-12-17T20:06:37.719Z,76.62
2018-12-17T20:09:07.079Z,75.65
2018-12-17T20:11:35.851Z,76.21
2018-12-17T20:14:04.542Z,75.60
2018-12-17T20:16:33.231Z,76.04
2018-12-17T20:19:03.030Z,76.33
2018-12-17T20:21:32.667Z,76.66
2018-12-17T20:24:01.332Z,76.78
2018-12-17T20:26:29.967Z,77.26
2018-12-17T20:28:58.589Z,77.51
2018-12-17T20:31:27.280Z,77.55
2018-12-17T20:33:55.877Z,77.61
2018-12-17T20:36:24.635Z,77.98
2018-12-17T20:38:53.819Z,78.02
2018-12-17T20:41:22.620Z,78.62
2018-12-17T20:43:51.405Z,78.48
2018-12-17T20:46:20.083Z,78.93
2018-12-17T20:48:48.755Z,78.84
2018-12-17T20:51:17.397Z,78.78
2018-12-17T20:53:46.014Z,79.79
2018-12-17T20:56:14.618Z,79.51
2018-12-17T20:58:43.301Z,79.77
2018-12-17T21:01:12.029Z,79.69
2018-12-17T21:03:40.655Z,79.71
2018-12-17T21:06:10.125Z,80.30
2018-12-17T21:08:38.781Z,80.40
2018-12-17T21:11:07.433Z,79.85
2018-12-17T21:13:36.149Z,80.47
2018-12-17T21:16:05.219Z,80.20
2018-12-17T21:18:33.913Z,80.88
2018-12-17T21:21:02.594Z,80.56
2018-12-17T21:23:31.525Z,80.73
2018-12-17T21:26:00.843Z,80.99
2018-12-17T21:28:29.811Z,81.67
2018-12-17T21:30:58.559Z,81.66
2018-12-17T21:33:27.335Z,82.04
2018-12-17T21:35:55.942Z,81.88
2018-12-17T21:38:24.611Z,81.43
2018-12-17T21:40:53.245Z,81.55
2018-12-17T21:43:21.850Z,81.52
2018-12-17T21:45:50.550Z,81.54
2018-12-17T21:48:19.274Z,81.58
2018-12-17T21:50:47.889Z,81.53
2018-12-17T21:53:16.458Z,81.45
2018-12-17T21:55:45.057Z,81.65
2018-12-17T21:58:13.921Z,81.79
2018-12-17T22:00:43.029Z,82.17
2018-12-17T22:03:13.439Z,81.99
2018-12-17T22:05:42.175Z,82.08
2018-12-17T22:08:10.787Z,82.55
2018-12-17T22:10:39.424Z,82.70
2018-12-17T22:13:08.017Z,82.64
2018-12-17T22:15:37.336Z,82.32
2018-12-17T22:18:05.961Z,82.31
2018-12-17T22:20:34.705Z,82.85
2018-12-17T22:23:03.329Z,82.75
2018-12-17T22:25:32.062Z,82.72
2018-12-17T22:28:00.756Z,82.47
2018-12-17T22:30:29.432Z,83.03
2018-12-17T22:32:58.038Z,83.35
2018-12-17T22:35:26.596Z,83.66
2018-12-17T22:37:55.281Z,84.16
2018-12-17T22:40:23.966Z,83.66
2018-12-17T22:42:52.614Z,83.88
2018-12-17T22:45:21.273Z,84.12
2018-12-17T22:47:49.910Z,84.10
2018-12-17T22:50:18.529Z,83.81
2018-12-17T22:52:47.210Z,83.89
2018-12-17T22:55:15.809Z,83.73
2018-12-17T22:57:44.474Z,83.95
2018-12-17T23:00:13.447Z,83.89
2018-12-17T23:02:42.125Z,83.52
2018-12-17T23:05:13.598Z,83.76
2018-12-17T23:07:42.339Z,83.94
2018-12-17T23:10:23.010Z,83.42
2018-12-17T23:13:03.074Z,83.67
2018-12-17T23:15:42.729Z,84.68
2018-12-17T23:18:10.217Z,84.43
2018-12-17T23:20:39.172Z,84.98
2018-12-17T23:23:07.936Z,85.20
2018-12-17T23:25:36.622Z,85.22
2018-12-17T23:28:05.465Z,85.36
2018-12-17T23:30:34.135Z,85.22
2018-12-17T23:33:02.741Z,85.87
2018-12-17T23:35:31.438Z,85.55
2018-12-17T23:38:00.165Z,85.15
2018-12-17T23:40:28.845Z,85.25
2018-12-17T23:42:57.529Z,84.76
2018-12-17T23:45:26.180Z,85.15
2018-12-17T23:47:54.888Z,85.06
2018-12-17T23:50:23.487Z,85.08
2018-12-17T23:52:52.122Z,84.56
2018-12-17T23:55:21.281Z,84.87
2018-12-17T23:57:49.941Z,85.20
